SDM6876 URSS-UNKL
Flight info
| Callsign | SDM6876 |
|---|---|
| Flight time | N/A |
| Altitude | 29000 |
| Route | BINOL DCT DINAP G926 RATKI/K0854F350 DCT KZ R227 AKT DCT OGANU N55 ARKER/K0841F370 N55 DAKIN G828 NN A300 RANET RANET2R |
| Aircraft | A319/M-SDE3FGHIRWY/LB1 |
Departure
| Time | 2026-05-06 17:17 |
|---|---|
| Airport | Sochi International Airport (URSS) |
Arrival
| Time | N/A |
|---|---|
| Airport | Krasnoyarsk International Airport (UNKL) |
| Time | Latitude | Longitude | Altitude | Speed | Heading |
|---|---|---|---|---|---|
| 2026-05-06 16:11 | 43.44838 | 39.94440 | 57 ft | 0 kts | 335° |
| 2026-05-06 16:58 | 43.44837 | 39.94441 | 58 ft | 0 kts | 336° |
| 2026-05-06 16:58 | 43.44829 | 39.94450 | 57 ft | 1 kts | 318° |
| 2026-05-06 16:58 | 43.44816 | 39.94458 | 57 ft | 2 kts | 336° |
| 2026-05-06 16:58 | 43.44803 | 39.94467 | 57 ft | 2 kts | 334° |
| 2026-05-06 16:59 | 43.44790 | 39.94476 | 57 ft | 2 kts | 334° |
| 2026-05-06 16:59 | 43.44776 | 39.94485 | 56 ft | 2 kts | 334° |
| 2026-05-06 16:59 | 43.44763 | 39.94494 | 56 ft | 2 kts | 334° |
| 2026-05-06 16:59 | 43.44749 | 39.94500 | 56 ft | 2 kts | 1° |
| 2026-05-06 17:00 | 43.44734 | 39.94496 | 56 ft | 2 kts | 28° |
| 2026-05-06 17:00 | 43.44723 | 39.94483 | 55 ft | 2 kts | 56° |
| 2026-05-06 17:00 | 43.44719 | 39.94474 | 55 ft | 1 kts | 69° |
| 2026-05-06 17:00 | 43.44718 | 39.94470 | 55 ft | 0 kts | 66° |
| 2026-05-06 17:09 | 43.44720 | 39.94475 | 55 ft | 0 kts | 64° |
| 2026-05-06 17:09 | 43.44723 | 39.94483 | 55 ft | 1 kts | 64° |
| 2026-05-06 17:09 | 43.44725 | 39.94490 | 55 ft | 0 kts | 64° |
| 2026-05-06 17:10 | 43.44727 | 39.94494 | 55 ft | 0 kts | 64° |
| 2026-05-06 17:10 | 43.44729 | 39.94500 | 55 ft | 0 kts | 64° |
| 2026-05-06 17:10 | 43.44732 | 39.94509 | 55 ft | 1 kts | 64° |
| 2026-05-06 17:10 | 43.44736 | 39.94522 | 56 ft | 1 kts | 64° |
| 2026-05-06 17:11 | 43.44742 | 39.94537 | 56 ft | 2 kts | 65° |
| 2026-05-06 17:11 | 43.44743 | 39.94541 | 56 ft | 0 kts | 65° |
| 2026-05-06 17:11 | 43.44750 | 39.94560 | 56 ft | 3 kts | 65° |
| 2026-05-06 17:11 | 43.44765 | 39.94604 | 55 ft | 7 kts | 65° |
| 2026-05-06 17:12 | 43.44791 | 39.94684 | 54 ft | 10 kts | 65° |
| 2026-05-06 17:12 | 43.44817 | 39.94770 | 56 ft | 9 kts | 65° |
| 2026-05-06 17:12 | 43.44841 | 39.94842 | 57 ft | 7 kts | 65° |
| 2026-05-06 17:12 | 43.44867 | 39.94916 | 57 ft | 8 kts | 64° |
| 2026-05-06 17:13 | 43.44894 | 39.94994 | 59 ft | 8 kts | 65° |
| 2026-05-06 17:13 | 43.44917 | 39.95061 | 60 ft | 7 kts | 65° |
| 2026-05-06 17:13 | 43.44939 | 39.95119 | 61 ft | 7 kts | 59° |
| 2026-05-06 17:13 | 43.44963 | 39.95182 | 61 ft | 6 kts | 65° |
| 2026-05-06 17:14 | 43.44980 | 39.95232 | 62 ft | 5 kts | 65° |
| 2026-05-06 17:14 | 43.44994 | 39.95275 | 63 ft | 4 kts | 71° |
| 2026-05-06 17:14 | 43.44995 | 39.95302 | 63 ft | 2 kts | 101° |
| 2026-05-06 17:14 | 43.44991 | 39.95317 | 64 ft | 1 kts | 116° |
| 2026-05-06 17:15 | 43.44986 | 39.95328 | 64 ft | 2 kts | 129° |
| 2026-05-06 17:15 | 43.44970 | 39.95346 | 64 ft | 4 kts | 147° |
| 2026-05-06 17:15 | 43.44939 | 39.95367 | 65 ft | 5 kts | 155° |
| 2026-05-06 17:15 | 43.44907 | 39.95372 | 65 ft | 5 kts | 209° |
| 2026-05-06 17:16 | 43.44886 | 39.95332 | 64 ft | 3 kts | 251° |
| 2026-05-06 17:16 | 43.44883 | 39.95322 | 64 ft | 0 kts | 243° |
| 2026-05-06 17:16 | 43.44865 | 39.95272 | 63 ft | 29 kts | 244° |
| 2026-05-06 17:17 | 43.44671 | 39.94691 | 54 ft | 101 kts | 246° |
| 2026-05-06 17:17 | 43.44283 | 39.93562 | 44 ft | 158 kts | 245° |
| 2026-05-06 17:17 | 43.43813 | 39.92146 | 520 ft | 164 kts | 247° |
| 2026-05-06 17:17 | 43.43405 | 39.90698 | 1115 ft | 167 kts | 257° |
| 2026-05-06 17:18 | 43.43207 | 39.89138 | 1769 ft | 167 kts | 263° |
| 2026-05-06 17:18 | 43.43063 | 39.87588 | 2393 ft | 168 kts | 263° |
| 2026-05-06 17:18 | 43.42997 | 39.85964 | 2767 ft | 180 kts | 279° |
| 2026-05-06 17:18 | 43.43559 | 39.84351 | 3073 ft | 197 kts | 306° |
| 2026-05-06 17:19 | 43.44479 | 39.82813 | 3332 ft | 219 kts | 310° |
| 2026-05-06 17:19 | 43.45506 | 39.81159 | 3713 ft | 238 kts | 309° |
| 2026-05-06 17:19 | 43.46592 | 39.79345 | 4101 ft | 255 kts | 308° |
| 2026-05-06 17:19 | 43.47715 | 39.77402 | 4704 ft | 263 kts | 307° |
| 2026-05-06 17:20 | 43.48840 | 39.75417 | 5456 ft | 265 kts | 307° |
| 2026-05-06 17:20 | 43.49955 | 39.73425 | 6182 ft | 268 kts | 306° |
| 2026-05-06 17:20 | 43.51083 | 39.71395 | 6901 ft | 271 kts | 306° |
| 2026-05-06 17:20 | 43.52222 | 39.69335 | 7619 ft | 274 kts | 306° |
| 2026-05-06 17:21 | 43.53390 | 39.67220 | 8345 ft | 278 kts | 306° |
| 2026-05-06 17:21 | 43.54561 | 39.65096 | 9062 ft | 281 kts | 306° |
| 2026-05-06 17:21 | 43.55737 | 39.62957 | 9769 ft | 285 kts | 306° |
| 2026-05-06 17:21 | 43.56942 | 39.60764 | 10422 ft | 290 kts | 306° |
| 2026-05-06 17:22 | 43.58181 | 39.58501 | 10769 ft | 307 kts | 306° |
| 2026-05-06 17:22 | 43.59504 | 39.56087 | 11070 ft | 324 kts | 306° |
| 2026-05-06 17:22 | 43.60926 | 39.53592 | 11351 ft | 342 kts | 312° |
| 2026-05-06 17:22 | 43.62892 | 39.51582 | 11602 ft | 361 kts | 334° |
| 2026-05-06 17:23 | 43.65348 | 39.50687 | 11862 ft | 377 kts | 356° |
| 2026-05-06 17:23 | 43.67979 | 39.51166 | 12338 ft | 385 kts | 18° |
| 2026-05-06 17:23 | 43.70351 | 39.52826 | 12938 ft | 387 kts | 38° |
| 2026-05-06 17:23 | 43.72198 | 39.55500 | 13468 ft | 390 kts | 58° |
| 2026-05-06 17:24 | 43.73283 | 39.58945 | 13975 ft | 391 kts | 78° |
| 2026-05-06 17:24 | 43.73853 | 39.62633 | 14513 ft | 395 kts | 81° |
| 2026-05-06 17:24 | 43.74365 | 39.66362 | 15009 ft | 399 kts | 82° |
| 2026-05-06 17:24 | 43.74898 | 39.70184 | 15513 ft | 404 kts | 81° |
| 2026-05-06 17:25 | 43.75447 | 39.73973 | 16002 ft | 408 kts | 81° |
| 2026-05-06 17:25 | 43.76025 | 39.77869 | 16484 ft | 412 kts | 81° |
| 2026-05-06 17:25 | 43.76609 | 39.81769 | 16948 ft | 416 kts | 81° |
| 2026-05-06 17:25 | 43.77189 | 39.85664 | 17395 ft | 419 kts | 82° |
| 2026-05-06 17:26 | 43.77421 | 39.89702 | 17796 ft | 418 kts | 98° |
| 2026-05-06 17:26 | 43.76801 | 39.93601 | 18215 ft | 414 kts | 115° |
| 2026-05-06 17:26 | 43.75457 | 39.97065 | 18656 ft | 410 kts | 127° |
| 2026-05-06 17:26 | 43.73869 | 40.00370 | 19085 ft | 412 kts | 128° |
| 2026-05-06 17:27 | 43.72246 | 40.03688 | 19484 ft | 416 kts | 128° |
| 2026-05-06 17:27 | 43.70656 | 40.07044 | 19876 ft | 421 kts | 125° |
| 2026-05-06 17:27 | 43.69356 | 40.10712 | 20260 ft | 429 kts | 115° |
| 2026-05-06 17:27 | 43.68493 | 40.14660 | 20626 ft | 438 kts | 106° |
| 2026-05-06 17:28 | 43.68012 | 40.18872 | 20998 ft | 443 kts | 101° |
| 2026-05-06 17:28 | 43.67650 | 40.23083 | 21350 ft | 447 kts | 100° |
| 2026-05-06 17:28 | 43.67300 | 40.27370 | 21685 ft | 451 kts | 100° |
| 2026-05-06 17:28 | 43.66942 | 40.31693 | 22023 ft | 454 kts | 101° |
| 2026-05-06 17:29 | 43.66572 | 40.36034 | 22355 ft | 457 kts | 101° |
| 2026-05-06 17:29 | 43.66193 | 40.40375 | 22671 ft | 460 kts | 101° |
| 2026-05-06 17:29 | 43.65800 | 40.44822 | 22993 ft | 463 kts | 101° |
| 2026-05-06 17:29 | 43.65409 | 40.49199 | 23301 ft | 466 kts | 101° |
| 2026-05-06 17:30 | 43.65006 | 40.53659 | 23598 ft | 469 kts | 101° |
| 2026-05-06 17:30 | 43.64595 | 40.58173 | 23900 ft | 472 kts | 101° |
| 2026-05-06 17:30 | 43.64183 | 40.62666 | 24197 ft | 475 kts | 101° |
| 2026-05-06 17:30 | 43.63770 | 40.67180 | 24501 ft | 477 kts | 102° |
| 2026-05-06 17:31 | 43.63355 | 40.71713 | 24802 ft | 480 kts | 102° |
| 2026-05-06 17:31 | 43.62929 | 40.76339 | 25099 ft | 483 kts | 102° |
| 2026-05-06 17:31 | 43.62499 | 40.80960 | 25366 ft | 486 kts | 102° |
| 2026-05-06 17:31 | 43.62065 | 40.85562 | 25606 ft | 490 kts | 102° |
| 2026-05-06 17:32 | 43.61617 | 40.90270 | 25799 ft | 495 kts | 101° |
| 2026-05-06 17:32 | 43.61167 | 40.94986 | 25984 ft | 500 kts | 101° |
| 2026-05-06 17:32 | 43.60704 | 40.99826 | 26202 ft | 504 kts | 101° |
| 2026-05-06 17:32 | 43.60249 | 41.04601 | 26487 ft | 506 kts | 100° |
| 2026-05-06 17:33 | 43.59789 | 41.09441 | 26920 ft | 505 kts | 100° |
| 2026-05-06 17:33 | 43.59339 | 41.14189 | 27285 ft | 506 kts | 100° |
| 2026-05-06 17:33 | 43.58881 | 41.18994 | 27717 ft | 505 kts | 101° |
| 2026-05-06 17:33 | 43.58424 | 41.23758 | 28430 ft | 497 kts | 101° |
| 2026-05-06 17:34 | 43.57962 | 41.28507 | 28906 ft | 496 kts | 101° |
| 2026-05-06 17:34 | 43.57504 | 41.33182 | 29102 ft | 501 kts | 101° |
| 2026-05-06 17:34 | 43.57032 | 41.37956 | 29105 ft | 504 kts | 101° |
| 2026-05-06 17:35 | 43.56087 | 41.47529 | 29105 ft | 505 kts | 101° |
| 2026-05-06 17:35 | 43.55136 | 41.57071 | 29099 ft | 505 kts | 101° |
| 2026-05-06 17:36 | 43.53695 | 41.71446 | 29090 ft | 505 kts | 101° |
| 2026-05-06 17:36 | 43.52728 | 41.81005 | 29090 ft | 505 kts | 101° |
| 2026-05-06 17:37 | 43.52129 | 41.90633 | 29091 ft | 507 kts | 96° |
| 2026-05-06 17:37 | 43.51706 | 42.00330 | 29090 ft | 507 kts | 96° |
| 2026-05-06 17:38 | 43.51277 | 42.10013 | 29090 ft | 507 kts | 96° |
| 2026-05-06 17:38 | 43.50831 | 42.19701 | 29090 ft | 507 kts | 96° |
| 2026-05-06 17:39 | 43.50680 | 42.22884 | 29090 ft | 507 kts | 96° |